createdAt,value
2023-09-14T00:02:01.343Z,17.85
2023-09-14T00:04:29.320Z,17.83
2023-09-14T00:06:56.265Z,17.77
2023-09-14T00:09:22.916Z,17.77
2023-09-14T00:11:50.835Z,17.74
2023-09-14T00:14:17.894Z,17.72
2023-09-14T00:16:44.938Z,17.69
2023-09-14T00:19:11.832Z,17.64
2023-09-14T00:21:38.903Z,17.58
2023-09-14T00:24:06.949Z,17.57
2023-09-14T00:26:33.494Z,17.56
2023-09-14T00:29:00.145Z,17.51
2023-09-14T00:31:26.769Z,17.44
2023-09-14T00:33:54.696Z,17.35
2023-09-14T00:36:21.248Z,17.35
2023-09-14T00:38:47.961Z,17.31
2023-09-14T00:41:14.799Z,17.31
2023-09-14T00:43:41.603Z,17.25
2023-09-14T00:46:09.354Z,17.22
2023-09-14T00:48:36.178Z,17.16
2023-09-14T00:51:03.388Z,17.09
2023-09-14T00:53:31.799Z,17.12
2023-09-14T00:55:58.623Z,17.10
2023-09-14T00:58:25.103Z,17.07
2023-09-14T01:00:51.911Z,17.04
2023-09-14T01:03:18.984Z,17.00
2023-09-14T01:05:46.256Z,17.00
2023-09-14T01:08:14.424Z,16.96
2023-09-14T01:10:41.181Z,16.93
2023-09-14T01:13:18.663Z,16.89
2023-09-14T01:15:52.893Z,16.77
2023-09-14T01:18:27.898Z,16.74
2023-09-14T01:21:16.477Z,16.66
2023-09-14T01:23:48.735Z,16.59
2023-09-14T01:26:16.884Z,16.40
2023-09-14T01:28:43.861Z,16.36
2023-09-14T01:31:10.808Z,16.39
2023-09-14T01:33:37.555Z,16.45
2023-09-14T01:36:23.934Z,16.50
2023-09-14T01:38:53.571Z,16.49
2023-09-14T01:41:21.929Z,16.52
2023-09-14T01:43:52.366Z,16.51
2023-09-14T01:48:45.981Z,16.46
2023-09-14T01:51:13.309Z,16.47
2023-09-14T01:53:39.856Z,16.44
2023-09-14T01:56:06.613Z,16.43
2023-09-14T01:58:33.290Z,16.43
2023-09-14T02:00:59.965Z,16.40
2023-09-14T02:03:26.647Z,16.34
2023-09-14T02:05:57.614Z,16.31
2023-09-14T02:08:24.133Z,16.26
2023-09-14T02:10:51.720Z,16.26
2023-09-14T02:13:19.304Z,16.26
2023-09-14T02:15:45.868Z,16.23
2023-09-14T02:18:12.462Z,16.20
2023-09-14T02:20:39.542Z,16.19
2023-09-14T02:23:08.249Z,16.16
2023-09-14T02:25:34.827Z,16.01
2023-09-14T02:28:01.501Z,15.98
2023-09-14T02:30:28.164Z,16.01
2023-09-14T02:32:56.301Z,16.03
2023-09-14T02:35:22.890Z,16.05
2023-09-14T02:37:49.653Z,16.00
2023-09-14T02:40:16.291Z,15.99
2023-09-14T02:42:43.006Z,15.94
2023-09-14T02:45:09.877Z,15.91
2023-09-14T02:47:36.442Z,15.86
2023-09-14T02:50:03.670Z,15.90
2023-09-14T02:52:30.208Z,15.87
2023-09-14T02:54:56.816Z,15.82
2023-09-14T02:57:23.442Z,15.82
2023-09-14T02:59:53.593Z,15.81
2023-09-14T03:02:24.888Z,15.79
2023-09-14T03:04:51.851Z,15.79
2023-09-14T03:07:18.488Z,15.78
2023-09-14T03:09:47.689Z,15.75
2023-09-14T03:12:14.292Z,15.72
2023-09-14T03:14:40.930Z,15.66
2023-09-14T03:17:07.435Z,15.62
2023-09-14T03:19:33.964Z,15.63
2023-09-14T03:22:00.868Z,15.62
2023-09-14T03:24:27.435Z,15.52
2023-09-14T03:26:53.976Z,15.48
2023-09-14T03:29:20.524Z,15.49
2023-09-14T03:31:47.048Z,15.49
2023-09-14T03:34:13.634Z,15.51
2023-09-14T03:36:40.249Z,15.51
2023-09-14T03:41:37.101Z,15.26
2023-09-14T03:44:03.850Z,15.20
2023-09-14T03:46:30.641Z,15.23
2023-09-14T03:48:57.395Z,15.26
2023-09-14T03:51:24.998Z,15.30
2023-09-14T03:53:51.492Z,15.32
2023-09-14T03:56:18.097Z,15.35
2023-09-14T03:58:44.967Z,15.37
2023-09-14T04:01:11.882Z,15.38
2023-09-14T04:03:38.578Z,15.35
2023-09-14T04:06:05.318Z,15.35
2023-09-14T04:08:32.153Z,15.36
2023-09-14T04:11:02.272Z,15.35
2023-09-14T04:13:36.303Z,15.29
2023-09-14T04:16:05.711Z,15.29
2023-09-14T04:18:32.719Z,15.32
2023-09-14T04:20:59.313Z,15.32
2023-09-14T04:23:25.878Z,15.34
2023-09-14T04:25:52.443Z,15.33
2023-09-14T04:28:19.916Z,15.31
2023-09-14T04:30:50.075Z,15.30
2023-09-14T04:33:18.555Z,15.28
2023-09-14T04:35:46.053Z,15.32
2023-09-14T04:38:13.074Z,15.35
2023-09-14T04:40:44.146Z,15.37
2023-09-14T04:43:11.749Z,15.36
2023-09-14T04:45:39.560Z,15.34
2023-09-14T04:48:07.152Z,15.37
2023-09-14T04:50:35.098Z,15.41
2023-09-14T04:53:01.677Z,15.48
2023-09-14T04:55:28.303Z,15.44
2023-09-14T04:57:54.904Z,15.35
2023-09-14T05:00:21.622Z,15.39
2023-09-14T05:02:49.016Z,15.49
2023-09-14T05:05:15.600Z,15.57
2023-09-14T05:07:42.182Z,15.64
2023-09-14T05:10:09.291Z,15.72
2023-09-14T05:12:36.289Z,15.78
2023-09-14T05:15:02.915Z,15.74
2023-09-14T05:17:30.012Z,15.78
2023-09-14T05:19:56.596Z,15.82
2023-09-14T05:22:23.206Z,15.86
2023-09-14T05:24:49.823Z,15.88
2023-09-14T05:27:16.407Z,15.90
2023-09-14T05:29:42.961Z,16.01
2023-09-14T05:32:09.537Z,16.04
2023-09-14T05:34:36.048Z,16.09
2023-09-14T05:37:02.604Z,16.05
2023-09-14T05:39:29.198Z,16.15
2023-09-14T05:41:57.334Z,16.24
2023-09-14T05:44:24.389Z,16.30
2023-09-14T05:46:51.066Z,16.34
2023-09-14T05:49:17.620Z,16.39
2023-09-14T05:51:44.336Z,16.45
2023-09-14T05:56:41.154Z,16.57
2023-09-14T05:59:17.433Z,16.59
2023-09-14T06:01:52.697Z,16.67
2023-09-14T06:04:19.445Z,16.74
2023-09-14T06:06:46.211Z,16.84
2023-09-14T06:09:13.311Z,16.91
2023-09-14T06:11:39.948Z,16.97
2023-09-14T06:14:06.512Z,17.04
2023-09-14T06:16:33.130Z,17.16
2023-09-14T06:18:59.860Z,17.21
2023-09-14T06:21:26.541Z,17.35
2023-09-14T06:23:53.295Z,17.42
2023-09-14T06:26:20.511Z,17.51
2023-09-14T06:28:47.192Z,17.62
2023-09-14T06:31:14.071Z,17.75
2023-09-14T06:33:40.800Z,17.87
2023-09-14T06:36:07.445Z,17.98
2023-09-14T06:38:35.062Z,18.08
2023-09-14T06:41:01.615Z,18.19
2023-09-14T06:43:28.370Z,18.27
2023-09-14T06:45:55.009Z,18.44
2023-09-14T06:48:21.711Z,18.59
2023-09-14T06:50:48.297Z,18.69
2023-09-14T06:53:14.804Z,18.81
2023-09-14T06:55:41.354Z,18.92
2023-09-14T06:58:08.089Z,19.04
2023-09-14T07:00:35.034Z,19.14
2023-09-14T07:03:01.755Z,19.17
2023-09-14T07:05:28.256Z,19.28
2023-09-14T07:07:55.929Z,19.40
2023-09-14T07:10:22.588Z,19.49
2023-09-14T07:12:49.275Z,19.62
2023-09-14T07:15:15.950Z,19.73
2023-09-14T07:17:42.549Z,19.80
2023-09-14T07:20:09.594Z,19.90
2023-09-14T07:22:36.178Z,19.92
2023-09-14T07:25:03.299Z,19.96
2023-09-14T07:27:29.921Z,19.97
2023-09-14T07:29:56.513Z,20.10
2023-09-14T07:32:23.178Z,20.20
2023-09-14T07:34:49.665Z,20.33
2023-09-14T07:37:16.367Z,20.40
2023-09-14T07:39:43.071Z,20.39
2023-09-14T07:42:09.656Z,20.45
2023-09-14T07:44:36.285Z,20.65
2023-09-14T07:47:02.916Z,20.89
2023-09-14T07:49:29.554Z,21.10
2023-09-14T07:51:56.165Z,21.32
2023-09-14T07:54:25.622Z,21.42
2023-09-14T07:56:52.135Z,21.59
2023-09-14T07:59:19.106Z,21.75
2023-09-14T08:01:45.646Z,21.90
2023-09-14T08:04:12.337Z,21.97
2023-09-14T08:06:39.106Z,22.07
2023-09-14T08:09:05.537Z,22.03
2023-09-14T08:11:32.055Z,22.10
2023-09-14T08:13:58.592Z,22.19
2023-09-14T08:16:25.132Z,22.26
2023-09-14T08:18:51.779Z,22.32
2023-09-14T08:21:18.199Z,22.35
2023-09-14T08:23:45.047Z,22.37
2023-09-14T08:26:11.784Z,22.45
2023-09-14T08:28:38.415Z,22.47
2023-09-14T08:31:05.119Z,22.54
2023-09-14T08:33:31.760Z,22.62
2023-09-14T08:35:58.240Z,22.71
2023-09-14T08:38:24.893Z,22.79
2023-09-14T08:40:54.239Z,22.87
2023-09-14T08:43:21.328Z,22.94
2023-09-14T08:45:48.802Z,23.02
2023-09-14T08:48:17.617Z,23.04
2023-09-14T08:50:45.099Z,23.10
2023-09-14T08:53:15.181Z,23.20
2023-09-14T08:55:45.581Z,23.34
2023-09-14T08:58:13.088Z,23.39
2023-09-14T09:00:41.291Z,23.24
2023-09-14T09:03:07.960Z,23.29
2023-09-14T09:05:34.856Z,23.17
2023-09-14T09:08:01.704Z,23.52
2023-09-14T09:10:29.907Z,23.74
2023-09-14T09:13:03.966Z,23.83
2023-09-14T09:15:36.446Z,24.03
2023-09-14T09:18:14.504Z,24.23
2023-09-14T09:20:42.382Z,24.35
2023-09-14T09:23:14.411Z,24.56
2023-09-14T09:25:46.296Z,24.88
2023-09-14T09:28:13.125Z,25.01
2023-09-14T09:30:39.757Z,25.20
2023-09-14T09:33:06.988Z,25.37
2023-09-14T09:35:34.275Z,25.51
2023-09-14T09:38:09.954Z,25.48
2023-09-14T09:40:42.392Z,25.49
2023-09-14T09:43:09.328Z,25.61
2023-09-14T09:45:40.957Z,25.70
2023-09-14T09:48:09.708Z,25.89
2023-09-14T09:50:36.973Z,25.93
2023-09-14T09:53:04.033Z,26.12
2023-09-14T09:55:30.779Z,26.48
2023-09-14T09:57:58.823Z,26.69
2023-09-14T10:00:30.650Z,27.07
2023-09-14T10:02:57.302Z,27.37
2023-09-14T10:05:30.088Z,27.80
2023-09-14T10:08:00.451Z,28.00
2023-09-14T10:10:29.041Z,27.93
2023-09-14T10:12:56.480Z,28.21
2023-09-14T10:15:26.298Z,28.25
2023-09-14T10:17:56.024Z,28.71
2023-09-14T10:20:24.345Z,29.16
2023-09-14T10:22:53.108Z,29.62
2023-09-14T10:25:20.881Z,29.93
2023-09-14T10:27:48.244Z,30.32
2023-09-14T10:30:19.928Z,30.66
2023-09-14T10:32:51.425Z,31.08
2023-09-14T10:35:18.782Z,30.81
2023-09-14T10:37:47.048Z,30.99
2023-09-14T10:40:14.735Z,31.12
2023-09-14T10:42:42.434Z,31.46
2023-09-14T10:45:11.469Z,31.12
2023-09-14T10:47:41.790Z,31.70
2023-09-14T10:50:10.401Z,31.90
2023-09-14T10:52:37.252Z,31.71
2023-09-14T10:55:07.526Z,32.10
2023-09-14T10:57:36.704Z,31.85
2023-09-14T11:00:22.114Z,32.23
2023-09-14T11:03:18.582Z,32.24
2023-09-14T11:05:47.274Z,32.94
2023-09-14T11:08:15.029Z,33.43
2023-09-14T11:11:04.659Z,33.44
2023-09-14T11:13:33.552Z,33.42
2023-09-14T11:16:12.801Z,33.29
2023-09-14T11:18:47.431Z,33.65
2023-09-14T11:21:37.170Z,33.19
2023-09-14T11:24:06.060Z,33.55
2023-09-14T11:26:35.384Z,33.84
2023-09-14T11:29:08.119Z,33.33
2023-09-14T11:31:58.962Z,33.96
2023-09-14T11:34:27.775Z,34.52
2023-09-14T11:37:02.852Z,34.35
2023-09-14T11:39:31.280Z,33.10
2023-09-14T11:42:04.163Z,33.44
2023-09-14T11:44:51.264Z,33.52
2023-09-14T11:47:21.834Z,33.91
2023-09-14T11:49:49.355Z,33.60
2023-09-14T11:52:20.077Z,34.51
2023-09-14T11:54:48.048Z,34.34
2023-09-14T11:57:15.796Z,34.30
2023-09-14T12:02:08.985Z,33.94
2023-09-14T12:04:35.947Z,34.56
2023-09-14T12:07:02.733Z,35.23
2023-09-14T12:09:39.822Z,35.69
2023-09-14T12:12:08.865Z,35.28
2023-09-14T12:14:43.265Z,35.74
2023-09-14T12:17:27.135Z,35.77
2023-09-14T12:19:56.136Z,35.99
2023-09-14T12:22:24.067Z,36.18
2023-09-14T12:24:53.563Z,36.27
2023-09-14T12:27:21.217Z,36.59
2023-09-14T12:29:49.691Z,36.23
2023-09-14T12:32:17.731Z,36.43
2023-09-14T12:34:45.555Z,36.44
2023-09-14T12:37:16.492Z,36.40
2023-09-14T12:39:43.148Z,36.24
2023-09-14T12:42:12.855Z,36.24
2023-09-14T12:44:39.405Z,36.06
2023-09-14T12:47:07.272Z,36.05
2023-09-14T12:49:36.988Z,35.99
2023-09-14T12:52:06.012Z,35.88
2023-09-14T12:54:34.000Z,35.51
2023-09-14T12:57:15.374Z,35.36
2023-09-14T13:00:07.436Z,35.06
2023-09-14T13:02:34.317Z,35.07
2023-09-14T13:05:00.980Z,34.98
2023-09-14T13:07:27.605Z,34.98
2023-09-14T13:10:10.992Z,35.00
2023-09-14T13:12:42.724Z,34.88
2023-09-14T13:15:10.376Z,34.35
2023-09-14T13:17:37.041Z,34.04
2023-09-14T13:20:03.638Z,33.88
2023-09-14T13:22:32.297Z,33.58
2023-09-14T13:25:00.345Z,33.45
2023-09-14T13:27:26.994Z,33.26
2023-09-14T13:29:53.519Z,32.92
2023-09-14T13:32:20.057Z,32.68
2023-09-14T13:34:46.591Z,32.64
2023-09-14T13:37:13.144Z,32.38
2023-09-14T13:39:40.655Z,32.38
2023-09-14T13:42:08.360Z,32.26
2023-09-14T13:44:34.871Z,31.87
2023-09-14T13:47:01.501Z,31.60
2023-09-14T13:49:28.062Z,31.35
2023-09-14T13:51:55.041Z,31.25
2023-09-14T13:54:21.751Z,31.22
2023-09-14T13:56:48.325Z,31.09
2023-09-14T13:59:15.061Z,30.78
2023-09-14T14:01:42.297Z,30.60
2023-09-14T14:04:09.037Z,30.58
2023-09-14T14:06:36.010Z,30.48
2023-09-14T14:09:02.588Z,30.43
2023-09-14T14:11:29.147Z,30.20
2023-09-14T14:13:55.686Z,30.07
2023-09-14T14:16:23.363Z,30.02
2023-09-14T14:18:50.053Z,30.04
2023-09-14T14:21:16.872Z,30.08
2023-09-14T14:23:43.388Z,29.87
2023-09-14T14:26:09.943Z,29.90
2023-09-14T14:28:36.514Z,29.69
2023-09-14T14:31:03.192Z,29.74
2023-09-14T14:33:31.648Z,29.71
2023-09-14T14:36:00.228Z,29.67
2023-09-14T14:38:26.860Z,29.61
2023-09-14T14:43:24.640Z,29.58
2023-09-14T14:45:53.291Z,29.58
2023-09-14T14:48:21.208Z,29.59
2023-09-14T14:50:47.785Z,29.54
2023-09-14T14:53:14.381Z,29.50
2023-09-14T14:55:40.963Z,29.59
2023-09-14T14:58:08.025Z,29.57
2023-09-14T15:00:36.395Z,29.50
2023-09-14T15:03:03.126Z,29.58
2023-09-14T15:05:29.993Z,29.52
2023-09-14T15:07:56.509Z,29.53
2023-09-14T15:10:24.198Z,29.50
2023-09-14T15:12:50.782Z,29.41
2023-09-14T15:15:17.434Z,29.41
2023-09-14T15:17:44.575Z,29.46
2023-09-14T15:20:12.179Z,29.40
2023-09-14T15:22:38.798Z,29.40
2023-09-14T15:27:31.086Z,29.16
2023-09-14T15:29:57.737Z,29.12
2023-09-14T15:32:25.675Z,29.12
2023-09-14T15:34:52.341Z,29.05
2023-09-14T15:37:19.044Z,28.88
2023-09-14T15:39:45.628Z,28.94
2023-09-14T15:42:12.270Z,28.77
2023-09-14T15:44:42.946Z,28.56
2023-09-14T15:47:09.495Z,28.10
2023-09-14T15:49:36.101Z,28.02
2023-09-14T15:52:02.723Z,27.83
2023-09-14T15:54:29.832Z,27.63
2023-09-14T15:56:56.508Z,27.58
2023-09-14T15:59:23.173Z,27.53
2023-09-14T16:01:49.718Z,27.41
2023-09-14T16:04:16.489Z,27.26
2023-09-14T16:06:46.102Z,27.21
2023-09-14T16:09:12.718Z,27.15
2023-09-14T16:11:39.618Z,27.26
2023-09-14T16:14:08.363Z,27.34
2023-09-14T16:16:36.910Z,27.22
2023-09-14T16:19:05.538Z,27.20
2023-09-14T16:21:32.302Z,27.08
2023-09-14T16:23:59.370Z,26.95
2023-09-14T16:26:26.026Z,26.94
2023-09-14T16:28:52.677Z,26.73
2023-09-14T16:31:19.254Z,26.66
2023-09-14T16:33:47.084Z,26.62
2023-09-14T16:36:13.675Z,26.55
2023-09-14T16:38:40.367Z,26.47
2023-09-14T16:41:06.997Z,26.30
2023-09-14T16:43:33.577Z,26.21
2023-09-14T16:46:01.015Z,26.14
2023-09-14T16:48:27.673Z,26.05
2023-09-14T16:50:54.309Z,25.99
2023-09-14T16:53:20.820Z,25.90
2023-09-14T16:55:48.196Z,25.76
2023-09-14T16:58:16.055Z,25.66
2023-09-14T17:00:42.669Z,25.56
2023-09-14T17:03:09.359Z,25.45
2023-09-14T17:05:36.043Z,25.33
2023-09-14T17:08:02.650Z,25.25
2023-09-14T17:10:29.335Z,25.19
2023-09-14T17:12:55.950Z,25.13
2023-09-14T17:15:22.597Z,25.08
2023-09-14T17:17:49.284Z,25.02
2023-09-14T17:20:15.835Z,24.95
2023-09-14T17:22:42.342Z,24.87
2023-09-14T17:25:08.933Z,24.84
2023-09-14T17:27:35.489Z,24.76
2023-09-14T17:30:02.202Z,24.72
2023-09-14T17:32:28.762Z,24.65
2023-09-14T17:34:55.411Z,24.60
2023-09-14T17:37:22.084Z,24.53
2023-09-14T17:39:48.763Z,24.47
2023-09-14T17:42:15.353Z,24.40
2023-09-14T17:44:42.702Z,24.34
2023-09-14T17:47:09.301Z,24.29
2023-09-14T17:49:36.608Z,24.24
2023-09-14T17:52:03.373Z,24.16
2023-09-14T17:54:31.371Z,24.02
2023-09-14T17:59:29.820Z,23.76
2023-09-14T18:01:56.671Z,23.50
2023-09-14T18:04:23.325Z,23.47
2023-09-14T18:06:50.700Z,23.51
2023-09-14T18:09:17.326Z,23.57
2023-09-14T18:11:43.979Z,23.60
2023-09-14T18:14:10.532Z,23.60
2023-09-14T18:16:37.115Z,23.58
2023-09-14T18:19:03.778Z,23.54
2023-09-14T18:21:31.443Z,23.50
2023-09-14T18:23:58.996Z,23.48
2023-09-14T18:26:25.535Z,23.45
2023-09-14T18:28:52.031Z,23.43
2023-09-14T18:31:19.270Z,23.39
2023-09-14T18:33:45.938Z,23.36
2023-09-14T18:36:12.440Z,23.32
2023-09-14T18:38:38.917Z,23.10
2023-09-14T18:41:05.472Z,23.13
2023-09-14T18:43:31.911Z,23.13
2023-09-14T18:45:58.474Z,23.12
2023-09-14T18:48:24.848Z,23.08
2023-09-14T18:50:51.427Z,23.04
2023-09-14T18:53:18.060Z,23.02
2023-09-14T18:55:50.807Z,22.99
2023-09-14T18:58:40.331Z,22.96
2023-09-14T19:01:04.111Z,22.94
2023-09-14T19:03:31.431Z,22.88
2023-09-14T19:05:58.185Z,22.79
2023-09-14T19:08:24.996Z,22.70
2023-09-14T19:10:52.797Z,22.68
2023-09-14T19:13:19.840Z,22.63
2023-09-14T19:15:46.376Z,22.61
2023-09-14T19:18:12.903Z,22.59
2023-09-14T19:20:41.227Z,22.52
2023-09-14T19:23:07.794Z,22.29
2023-09-14T19:25:34.426Z,22.07
2023-09-14T19:28:01.061Z,21.90
2023-09-14T19:30:28.935Z,21.62
2023-09-14T19:32:55.488Z,21.45
2023-09-14T19:35:21.944Z,21.39
2023-09-14T19:37:48.489Z,21.40
2023-09-14T19:40:15.952Z,21.49
2023-09-14T19:42:42.539Z,21.59
2023-09-14T19:45:10.274Z,21.69
2023-09-14T19:47:37.490Z,21.71
2023-09-14T19:50:04.214Z,21.80
2023-09-14T19:52:31.046Z,21.88
2023-09-14T19:54:58.035Z,21.92
2023-09-14T19:57:26.006Z,21.93
2023-09-14T19:59:52.658Z,21.95
2023-09-14T20:02:20.014Z,21.95
2023-09-14T20:04:49.672Z,21.92
2023-09-14T20:07:17.522Z,21.81
2023-09-14T20:09:44.182Z,21.80
2023-09-14T20:12:11.333Z,21.82
2023-09-14T20:14:37.946Z,21.84
2023-09-14T20:17:04.495Z,21.83
2023-09-14T20:19:31.058Z,21.78
2023-09-14T20:21:57.548Z,21.79
2023-09-14T20:24:24.177Z,21.76
2023-09-14T20:26:50.928Z,21.76
2023-09-14T20:29:17.496Z,21.73
2023-09-14T20:31:43.878Z,21.70
2023-09-14T20:34:10.561Z,21.65
2023-09-14T20:36:37.251Z,21.63
2023-09-14T20:39:04.189Z,21.61
2023-09-14T20:41:31.291Z,21.58
2023-09-14T20:43:57.855Z,21.58
2023-09-14T20:46:24.698Z,21.50
2023-09-14T20:48:52.948Z,21.46
2023-09-14T20:51:19.689Z,21.25
2023-09-14T20:53:46.087Z,21.10
2023-09-14T20:56:13.759Z,21.14
2023-09-14T21:01:11.961Z,21.10
2023-09-14T21:03:38.631Z,21.02
2023-09-14T21:06:05.285Z,21.05
2023-09-14T21:08:33.449Z,21.09
2023-09-14T21:11:03.984Z,21.10
2023-09-14T21:13:30.546Z,21.10
2023-09-14T21:15:58.227Z,21.08
2023-09-14T21:18:25.232Z,21.06
2023-09-14T21:20:55.360Z,21.01
2023-09-14T21:23:22.029Z,20.98
2023-09-14T21:25:58.723Z,20.94
2023-09-14T21:28:26.776Z,20.88
2023-09-14T21:30:57.465Z,20.87
2023-09-14T21:33:24.466Z,20.84
2023-09-14T21:35:55.871Z,20.77
2023-09-14T21:38:23.459Z,20.70
2023-09-14T21:41:01.077Z,20.65
2023-09-14T21:43:32.469Z,20.59
2023-09-14T21:45:59.163Z,20.56
2023-09-14T21:48:25.956Z,20.51
2023-09-14T21:50:52.790Z,20.49
2023-09-14T21:53:22.063Z,20.45
2023-09-14T21:55:48.969Z,20.38
2023-09-14T21:58:15.500Z,20.22
2023-09-14T22:00:42.678Z,20.17
2023-09-14T22:03:09.435Z,20.14
2023-09-14T22:05:37.293Z,20.07
2023-09-14T22:08:04.290Z,20.06
2023-09-14T22:10:30.977Z,20.03
2023-09-14T22:12:57.906Z,20.01
2023-09-14T22:15:24.591Z,19.99
2023-09-14T22:17:52.031Z,19.90
2023-09-14T22:20:18.902Z,19.78
2023-09-14T22:22:52.755Z,19.71
2023-09-14T22:25:19.775Z,19.71
2023-09-14T22:27:46.915Z,19.69
2023-09-14T22:30:15.222Z,19.70
2023-09-14T22:32:42.076Z,19.63
2023-09-14T22:35:08.872Z,19.62
2023-09-14T22:37:39.995Z,19.54
2023-09-14T22:40:11.269Z,19.49
2023-09-14T22:42:37.824Z,19.46
2023-09-14T22:45:04.762Z,19.42
2023-09-14T22:47:31.380Z,19.37
2023-09-14T22:49:58.022Z,19.32
2023-09-14T22:52:24.679Z,19.34
2023-09-14T22:54:51.395Z,19.33
2023-09-14T22:57:18.240Z,19.24
2023-09-14T22:59:45.236Z,19.22
2023-09-14T23:02:11.757Z,19.15
2023-09-14T23:04:38.368Z,19.13
2023-09-14T23:07:06.501Z,19.08
2023-09-14T23:09:33.082Z,19.07
2023-09-14T23:11:59.874Z,19.07
2023-09-14T23:14:26.320Z,19.04
2023-09-14T23:16:53.072Z,19.00
2023-09-14T23:19:20.638Z,18.93
2023-09-14T23:21:49.207Z,18.90
2023-09-14T23:24:15.790Z,18.86
2023-09-14T23:26:42.939Z,18.83
2023-09-14T23:29:11.156Z,18.75
2023-09-14T23:31:45.094Z,18.70
2023-09-14T23:34:15.443Z,18.69
2023-09-14T23:36:42.291Z,18.70
2023-09-14T23:39:09.733Z,18.65
2023-09-14T23:41:36.643Z,18.59
2023-09-14T23:44:04.761Z,18.23
2023-09-14T23:46:31.936Z,18.14
2023-09-14T23:48:58.804Z,18.21
2023-09-14T23:51:25.592Z,18.26
2023-09-14T23:53:52.176Z,18.26
2023-09-14T23:56:18.789Z,18.31
2023-09-14T23:58:45.623Z,18.34
